Main page
METAR-TAF:

METAR-TAF

Airports :

Irkutsk, Russia

International Airport Irkutsk

latitude: 52-16N, longitude: 104-19E, elevation: 513 m

Current weather observation

The report was made 39 minutes ago, at 08:30 UTC
Wind 12 kt from the Northwest
Temperature 11°C
Humidity 54%
Pressure 1010 hPa
Visibility 10 km or more
Broken clouds at a height of 5000 ft, Cumulonimbus.

METAR: UIII 230830Z 31006MPS 9999 BKN050CB 11/02 Q1010 R30/CLRD60 NOSIG RMK QFE713/0951

Time: 17:09 (09:09 UTC)

Forecast

The report was made 1 hour and 9 minutes ago, at 08:00 UTC
Forecast valid from 23 at 09 UTC to 24 at 09 UTC
Wind 12 kt from the West/Northwest
Visibility 10 km or more
Broken clouds at a height of 1500 ft, Cumulonimbus.
Becoming
from 23 at 15 UTC to 23 at 17 UTC
Wind 2 kt from variable directions
Becoming
from 24 at 00 UTC to 24 at 02 UTC
Wind 16 kt from the South/Southeast

TAF: UIII 230800Z 2309/2409 30006MPS 9999 BKN015CB BECMG 2315/2317 VRB01MPS BECMG 2400/2402 16008MPS

Weather observations and forecasts of more than 4000 airports (METAR and TAF reports).

The available stations are represented by yellow and red dots on the map.

Hover mouse over dot to see the name of the station.

Then click to see weather observations and forecasts.

To change the map : click on the green buttons with a black cross to zoom in, on the green button with a dash to zoom out, or on the green arrows for adjacent maps.


METAR-TAF: